Aviation Digital Data Service (ADDS)

Output produced by METARs form (0815 UTC 30 October 2020)
found at http://www.aviationweather.gov/metar/data/
 
Forecast for: UTDK (KOLUB , TJ)
Text: TAF UTDK 300300Z 3004/3013 VRB02MPS 6000 NSC
Forecast period: 0400 to 1300 UTC 30 October 2020
Forecast type: FROM: standard forecast or significant change
Winds: variable direction winds at 5 MPH (4 knots; 2.1 m/s)
Visibility: 4 miles (6 km)
Ceiling: unknown
Clouds: missing
Weather: no significant weather forecast for this period
Text: TEMPO 3006/3013 20006MPS
Forecast period: 0600 to 1300 UTC 30 October 2020
Forecast type: TEMPORARY: The following changes expected for less than half the time period
Winds: from the SSW (200 degrees) at 14 MPH (12 knots; 6.2 m/s)
Visibility: missing
Ceiling: unknown
Clouds: missing
Weather: no significant weather forecast for this period